sensor_id;sensor_type;location;lat;lon;timestamp;pressure;altitude;pressure_sealevel;temperature;humidity
48792;BME280;34587;48.816;9.420;2024-03-02T00:01:29;97713.50;;;3.64;100.00
48792;BME280;34587;48.816;9.420;2024-03-02T00:03:55;97708.31;;;3.70;100.00
48792;BME280;34587;48.816;9.420;2024-03-02T00:06:20;97709.16;;;3.74;100.00
48792;BME280;34587;48.816;9.420;2024-03-02T00:08:46;97705.78;;;3.69;100.00
48792;BME280;34587;48.816;9.420;2024-03-02T00:11:12;97708.25;;;3.82;100.00
48792;BME280;34587;48.816;9.420;2024-03-02T00:13:39;97702.06;;;4.00;100.00
48792;BME280;34587;48.816;9.420;2024-03-02T00:16:04;97697.84;;;3.95;100.00
48792;BME280;34587;48.816;9.420;2024-03-02T00:18:32;97699.53;;;3.99;100.00
48792;BME280;34587;48.816;9.420;2024-03-02T00:20:58;97701.38;;;3.81;100.00
48792;BME280;34587;48.816;9.420;2024-03-02T00:23:26;97697.84;;;3.95;100.00
48792;BME280;34587;48.816;9.420;2024-03-02T00:25:53;97709.88;;;3.86;100.00
48792;BME280;34587;48.816;9.420;2024-03-02T00:28:31;97702.28;;;3.79;100.00
48792;BME280;34587;48.816;9.420;2024-03-02T00:33:30;97702.16;;;3.91;100.00
48792;BME280;34587;48.816;9.420;2024-03-02T00:35:57;97709.88;;;3.86;100.00
48792;BME280;34587;48.816;9.420;2024-03-02T00:38:22;97710.81;;;3.79;100.00
48792;BME280;34587;48.816;9.420;2024-03-02T00:40:47;97720.38;;;3.59;100.00
48792;BME280;34587;48.816;9.420;2024-03-02T00:43:42;97720.44;;;3.50;100.00
48792;BME280;34587;48.816;9.420;2024-03-02T00:46:10;97715.97;;;3.75;100.00
48792;BME280;34587;48.816;9.420;2024-03-02T00:48:36;97714.19;;;3.81;100.00
48792;BME280;34587;48.816;9.420;2024-03-02T00:51:04;97711.69;;;3.78;100.00
48792;BME280;34587;48.816;9.420;2024-03-02T00:53:30;97708.16;;;3.92;100.00
48792;BME280;34587;48.816;9.420;2024-03-02T00:55:57;97714.94;;;3.96;100.00
48792;BME280;34587;48.816;9.420;2024-03-02T00:58:23;97707.31;;;3.88;100.00
48792;BME280;34587;48.816;9.420;2024-03-02T05:17:41;97685.97;;;2.57;100.00
48792;BME280;34587;48.816;9.420;2024-03-02T05:20:11;97689.38;;;2.54;100.00
48792;BME280;34587;48.816;9.420;2024-03-02T05:22:37;97682.59;;;2.52;100.00
48792;BME280;34587;48.816;9.420;2024-03-02T05:25:07;97678.31;;;2.51;100.00
48792;BME280;34587;48.816;9.420;2024-03-02T05:27:36;97676.66;;;2.44;100.00
48792;BME280;34587;48.816;9.420;2024-03-02T05:30:11;97676.66;;;2.41;100.00
48792;BME280;34587;48.816;9.420;2024-03-02T05:32:36;97676.66;;;2.41;100.00
48792;BME280;34587;48.816;9.420;2024-03-02T05:35:02;97674.97;;;2.40;100.00
48792;BME280;34587;48.816;9.420;2024-03-02T05:37:28;97685.22;;;2.30;100.00
48792;BME280;34587;48.816;9.420;2024-03-02T05:39:53;97688.59;;;2.39;100.00
48792;BME280;34587;48.816;9.420;2024-03-02T05:42:19;97687.75;;;2.32;100.00
48792;BME280;34587;48.816;9.420;2024-03-02T05:44:44;97686.91;;;2.35;100.00
48792;BME280;34587;48.816;9.420;2024-03-02T05:47:09;97683.47;;;2.36;100.00
48792;BME280;34587;48.816;9.420;2024-03-02T05:49:35;97689.47;;;2.38;100.00
48792;BME280;34587;48.816;9.420;2024-03-02T05:52:00;97682.66;;;2.34;100.00
48792;BME280;34587;48.816;9.420;2024-03-02T05:54:26;97689.44;;;2.31;100.00
48792;BME280;34587;48.816;9.420;2024-03-02T05:56:51;97687.78;;;2.26;100.00
48792;BME280;34587;48.816;9.420;2024-03-02T05:59:16;97693.75;;;2.23;100.00
48792;BME280;34587;48.816;9.420;2024-03-02T06:01:43;97692.91;;;2.17;100.00
48792;BME280;34587;48.816;9.420;2024-03-02T06:04:12;97696.31;;;2.16;100.00
48792;BME280;34587;48.816;9.420;2024-03-02T06:06:37;97693.75;;;2.13;100.00
48792;BME280;34587;48.816;9.420;2024-03-02T06:09:04;97697.19;;;2.13;100.00
48792;BME280;34587;48.816;9.420;2024-03-02T06:11:36;97696.31;;;2.11;100.00
48792;BME280;34587;48.816;9.420;2024-03-02T06:14:02;97698.88;;;2.11;100.00
48792;BME280;34587;48.816;9.420;2024-03-02T06:16:27;97699.72;;;2.16;100.00
48792;BME280;34587;48.816;9.420;2024-03-02T06:18:52;97697.16;;;2.25;100.00
48792;BME280;34587;48.816;9.420;2024-03-02T06:21:19;97697.16;;;2.25;100.00
48792;BME280;34587;48.816;9.420;2024-03-02T06:23:45;97698.84;;;2.33;100.00
48792;BME280;34587;48.816;9.420;2024-03-02T06:26:10;97694.56;;;2.36;100.00
48792;BME280;34587;48.816;9.420;2024-03-02T06:28:35;97709.91;;;2.39;100.00
48792;BME280;34587;48.816;9.420;2024-03-02T06:31:02;97705.63;;;2.43;100.00
48792;BME280;34587;48.816;9.420;2024-03-02T06:33:27;97707.31;;;2.44;100.00
48792;BME280;34587;48.816;9.420;2024-03-02T06:35:53;97717.53;;;2.50;100.00
48792;BME280;34587;48.816;9.420;2024-03-02T06:38:19;97710.72;;;2.46;100.00
48792;BME280;34587;48.816;9.420;2024-03-02T06:40:44;97715.81;;;2.46;100.00
48792;BME280;34587;48.816;9.420;2024-03-02T06:43:09;97717.56;;;2.44;100.00
48792;BME280;34587;48.816;9.420;2024-03-02T06:45:34;97727.78;;;2.35;100.00
48792;BME280;34587;48.816;9.420;2024-03-02T06:48:00;97721.00;;;2.29;100.00
48792;BME280;34587;48.816;9.420;2024-03-02T06:50:25;97726.97;;;2.16;100.00
48792;BME280;34587;48.816;9.420;2024-03-02T06:52:51;97721.03;;;2.18;100.00
48792;BME280;34587;48.816;9.420;2024-03-02T06:55:17;97723.56;;;2.24;100.00
48792;BME280;34587;48.816;9.420;2024-03-02T06:57:42;97716.72;;;2.36;100.00
48792;BME280;34587;48.816;9.420;2024-03-02T07:00:08;97717.53;;;2.41;100.00
48792;BME280;34587;48.816;9.420;2024-03-02T07:02:34;97713.28;;;2.44;100.00
48792;BME280;34587;48.816;9.420;2024-03-02T07:05:00;97717.53;;;2.50;100.00
48792;BME280;34587;48.816;9.420;2024-03-02T07:07:25;97726.00;;;2.67;100.00
48792;BME280;34587;48.816;9.420;2024-03-02T07:09:50;97729.31;;;2.84;100.00
48792;BME280;34587;48.816;9.420;2024-03-02T07:12:16;97725.00;;;2.97;100.00
48792;BME280;34587;48.816;9.420;2024-03-02T07:14:41;97720.75;;;2.98;100.00
48792;BME280;34587;48.816;9.420;2024-03-02T07:17:22;97724.03;;;3.18;100.00
48792;BME280;34587;48.816;9.420;2024-03-02T07:19:47;97727.34;;;3.39;100.00
48792;BME280;34587;48.816;9.420;2024-03-02T07:22:12;97725.50;;;3.56;100.00
48792;BME280;34587;48.816;9.420;2024-03-02T07:24:44;97715.13;;;3.74;100.00
48792;BME280;34587;48.816;9.420;2024-03-02T07:27:11;97720.25;;;3.71;100.00
48792;BME280;34587;48.816;9.420;2024-03-02T07:29:37;97717.63;;;3.80;100.00
48792;BME280;34587;48.816;9.420;2024-03-02T07:32:03;97712.50;;;3.83;100.00
48792;BME280;34587;48.816;9.420;2024-03-02T07:34:28;97713.09;;;4.10;100.00
48792;BME280;34587;48.816;9.420;2024-03-02T07:36:53;97709.56;;;4.20;100.00
48792;BME280;34587;48.816;9.420;2024-03-02T07:39:19;97711.91;;;4.43;100.00
48792;BME280;34587;48.816;9.420;2024-03-02T07:41:45;97719.97;;;4.85;100.00
48792;BME280;34587;48.816;9.420;2024-03-02T07:44:10;97715.66;;;4.88;100.00
48792;BME280;34587;48.816;9.420;2024-03-02T07:46:39;97717.97;;;5.07;100.00
48792;BME280;34587;48.816;9.420;2024-03-02T07:49:05;97716.72;;;4.71;100.00
48792;BME280;34587;48.816;9.420;2024-03-02T07:51:30;97710.13;;;5.19;100.00
48792;BME280;34587;48.816;9.420;2024-03-02T07:53:55;97713.63;;;5.12;100.00
48792;BME280;34587;48.816;9.420;2024-03-02T07:56:21;97716.78;;;5.32;100.00
48792;BME280;34587;48.816;9.420;2024-03-02T07:58:47;97715.81;;;5.39;100.00
48792;BME280;34587;48.816;9.420;2024-03-02T08:01:14;97712.47;;;5.91;100.00
48792;BME280;34587;48.816;9.420;2024-03-02T08:03:39;97717.63;;;5.88;100.00
48792;BME280;34587;48.816;9.420;2024-03-02T08:06:05;97706.91;;;6.16;100.00
48792;BME280;34587;48.816;9.420;2024-03-02T08:08:30;97712.69;;;6.29;100.00
48792;BME280;34587;48.816;9.420;2024-03-02T08:10:55;97711.72;;;6.34;100.00
48792;BME280;34587;48.816;9.420;2024-03-02T08:13:21;97711.88;;;6.25;100.00
48792;BME280;34587;48.816;9.420;2024-03-02T08:15:46;97705.91;;;6.23;100.00
48792;BME280;34587;48.816;9.420;2024-03-02T08:18:11;97709.25;;;6.30;100.00
48792;BME280;34587;48.816;9.420;2024-03-02T08:20:37;97712.91;;;6.63;100.00
48792;BME280;34587;48.816;9.420;2024-03-02T08:23:02;97712.81;;;6.66;100.00
48792;BME280;34587;48.816;9.420;2024-03-02T08:25:28;97708.63;;;7.04;100.00
48792;BME280;34587;48.816;9.420;2024-03-02T08:27:53;97703.75;;;6.91;100.00
48792;BME280;34587;48.816;9.420;2024-03-02T08:30:18;97696.84;;;6.93;100.00
48792;BME280;34587;48.816;9.420;2024-03-02T08:32:44;97702.16;;;7.25;100.00
48792;BME280;34587;48.816;9.420;2024-03-02T08:35:10;97700.28;;;7.33;100.00
48792;BME280;34587;48.816;9.420;2024-03-02T08:37:38;97688.66;;;8.22;100.00
48792;BME280;34587;48.816;9.420;2024-03-02T08:40:05;97691.59;;;7.74;100.00
48792;BME280;34587;48.816;9.420;2024-03-02T08:42:32;97695.13;;;7.70;100.00
48792;BME280;34587;48.816;9.420;2024-03-02T08:44:57;97685.94;;;7.58;100.00
48792;BME280;34587;48.816;9.420;2024-03-02T08:47:23;97685.59;;;8.08;100.00
48792;BME280;34587;48.816;9.420;2024-03-02T08:49:48;97678.47;;;7.83;100.00
48792;BME280;34587;48.816;9.420;2024-03-02T08:52:13;97678.31;;;7.54;100.00
48792;BME280;34587;48.816;9.420;2024-03-02T08:54:39;97680.53;;;7.69;100.00
48792;BME280;34587;48.816;9.420;2024-03-02T08:57:05;97676.19;;;7.71;100.00
48792;BME280;34587;48.816;9.420;2024-03-02T08:59:30;97673.91;;;8.25;100.00
48792;BME280;34587;48.816;9.420;2024-03-02T09:01:56;97677.28;;;8.62;100.00
48792;BME280;34587;48.816;9.420;2024-03-02T09:04:22;97674.81;;;8.57;100.00
48792;BME280;34587;48.816;9.420;2024-03-02T09:06:48;97672.56;;;8.46;100.00
48792;BME280;34587;48.816;9.420;2024-03-02T09:09:13;97673.03;;;8.61;100.00
48792;BME280;34587;48.816;9.420;2024-03-02T09:11:38;97660.53;;;9.33;100.00
48792;BME280;34587;48.816;9.420;2024-03-02T09:14:03;97664.19;;;11.03;100.00
48792;BME280;34587;48.816;9.420;2024-03-02T09:16:30;97649.31;;;14.72;100.00
48792;BME280;34587;48.816;9.420;2024-03-02T09:18:56;97649.81;;;16.78;65.62
48792;BME280;34587;48.816;9.420;2024-03-02T09:21:21;97653.03;;;16.67;63.18
48792;BME280;34587;48.816;9.420;2024-03-02T09:23:47;97646.44;;;17.04;62.50
48792;BME280;34587;48.816;9.420;2024-03-02T09:26:13;97639.94;;;20.73;48.91
48792;BME280;34587;48.816;9.420;2024-03-02T09:28:42;97648.53;;;20.53;45.18
48792;BME280;34587;48.816;9.420;2024-03-02T09:31:08;97638.50;;;22.33;41.02
48792;BME280;34587;48.816;9.420;2024-03-02T09:33:33;97650.84;;;20.22;45.11
48792;BME280;34587;48.816;9.420;2024-03-02T09:35:58;97648.25;;;22.00;40.81
48792;BME280;34587;48.816;9.420;2024-03-02T09:38:24;97650.47;;;22.58;40.47
48792;BME280;34587;48.816;9.420;2024-03-02T09:40:49;97643.09;;;23.13;39.81
48792;BME280;34587;48.816;9.420;2024-03-02T09:43:14;97651.94;;;22.51;39.98
48792;BME280;34587;48.816;9.420;2024-03-02T09:45:40;97651.28;;;23.10;37.73
48792;BME280;34587;48.816;9.420;2024-03-02T09:48:05;97640.19;;;25.73;34.66
48792;BME280;34587;48.816;9.420;2024-03-02T09:50:31;97638.66;;;27.36;31.08
48792;BME280;34587;48.816;9.420;2024-03-02T09:52:56;97636.66;;;27.30;31.17
48792;BME280;34587;48.816;9.420;2024-03-02T09:55:21;97638.66;;;27.28;30.01
48792;BME280;34587;48.816;9.420;2024-03-02T09:57:47;97635.59;;;26.81;30.67
48792;BME280;34587;48.816;9.420;2024-03-02T10:00:16;97629.84;;;27.78;29.81
48792;BME280;34587;48.816;9.420;2024-03-02T10:02:42;97639.31;;;26.96;30.69
48792;BME280;34587;48.816;9.420;2024-03-02T10:05:09;97631.50;;;28.28;29.58
48792;BME280;34587;48.816;9.420;2024-03-02T10:07:34;97634.03;;;28.30;29.59
48792;BME280;34587;48.816;9.420;2024-03-02T10:10:12;97626.69;;;27.24;30.92
48792;BME280;34587;48.816;9.420;2024-03-02T10:12:37;97627.38;;;26.22;30.17
48792;BME280;34587;48.816;9.420;2024-03-02T10:15:04;97620.66;;;27.14;29.56
48792;BME280;34587;48.816;9.420;2024-03-02T10:17:33;97619.19;;;28.03;29.05
48792;BME280;34587;48.816;9.420;2024-03-02T10:19:59;97609.78;;;28.80;28.24
48792;BME280;34587;48.816;9.420;2024-03-02T10:22:44;97619.13;;;28.76;27.05
48792;BME280;34587;48.816;9.420;2024-03-02T10:25:28;97605.16;;;30.44;26.49
48792;BME280;34587;48.816;9.420;2024-03-02T10:27:57;97607.19;;;28.56;26.92
48792;BME280;34587;48.816;9.420;2024-03-02T10:30:22;97613.91;;;26.94;29.56
48792;BME280;34587;48.816;9.420;2024-03-02T10:32:49;97607.72;;;27.19;29.65
48792;BME280;34587;48.816;9.420;2024-03-02T10:35:15;97600.13;;;26.20;29.44
48792;BME280;34587;48.816;9.420;2024-03-02T10:37:41;97606.31;;;26.47;28.69
48792;BME280;34587;48.816;9.420;2024-03-02T10:40:08;97600.22;;;28.06;28.37
48792;BME280;34587;48.816;9.420;2024-03-02T10:42:36;97606.56;;;24.91;30.17
48792;BME280;34587;48.816;9.420;2024-03-02T10:45:03;97592.25;;;28.06;27.44
48792;BME280;34587;48.816;9.420;2024-03-02T10:47:29;97596.06;;;26.34;28.80
48792;BME280;34587;48.816;9.420;2024-03-02T10:49:58;97588.66;;;25.03;30.03
48792;BME280;34587;48.816;9.420;2024-03-02T10:52:24;97585.03;;;24.10;30.19
48792;BME280;34587;48.816;9.420;2024-03-02T10:54:49;97588.84;;;23.09;32.97
48792;BME280;34587;48.816;9.420;2024-03-02T10:57:16;97583.16;;;24.86;30.81
48792;BME280;34587;48.816;9.420;2024-03-02T10:59:52;97573.06;;;25.45;30.15
48792;BME280;34587;48.816;9.420;2024-03-02T11:02:21;97571.16;;;26.35;29.39
48792;BME280;34587;48.816;9.420;2024-03-02T11:04:47;97569.53;;;25.09;30.56
48792;BME280;34587;48.816;9.420;2024-03-02T11:07:14;97565.47;;;26.48;28.77
48792;BME280;34587;48.816;9.420;2024-03-02T11:09:54;97551.25;;;27.58;28.18
48792;BME280;34587;48.816;9.420;2024-03-02T11:12:28;97554.72;;;25.52;30.48
48792;BME280;34587;48.816;9.420;2024-03-02T11:14:55;97550.97;;;26.16;29.87
48792;BME280;34587;48.816;9.420;2024-03-02T11:17:21;97554.59;;;24.33;31.44
48792;BME280;34587;48.816;9.420;2024-03-02T11:19:47;97559.97;;;25.44;29.30
48792;BME280;34587;48.816;9.420;2024-03-02T11:22:14;97550.47;;;25.95;28.88
48792;BME280;34587;48.816;9.420;2024-03-02T11:24:50;97548.81;;;24.01;31.05
48792;BME280;34587;48.816;9.420;2024-03-02T11:33:03;97534.38;;;23.47;31.93
48792;BME280;34587;48.816;9.420;2024-03-02T11:35:38;97520.72;;;24.74;29.69
48792;BME280;34587;48.816;9.420;2024-03-02T11:38:06;97521.66;;;24.55;30.07
48792;BME280;34587;48.816;9.420;2024-03-02T11:40:32;97513.75;;;23.02;33.43
48792;BME280;34587;48.816;9.420;2024-03-02T11:42:59;97500.97;;;25.14;29.74
48792;BME280;34587;48.816;9.420;2024-03-02T11:45:25;97499.75;;;24.16;32.26
48792;BME280;34587;48.816;9.420;2024-03-02T11:47:53;97492.47;;;24.28;31.18
48792;BME280;34587;48.816;9.420;2024-03-02T11:50:54;97492.56;;;23.99;29.48
48792;BME280;34587;48.816;9.420;2024-03-02T11:53:23;97492.94;;;22.38;32.26
48792;BME280;34587;48.816;9.420;2024-03-02T11:55:49;97487.41;;;21.47;34.35
48792;BME280;34587;48.816;9.420;2024-03-02T11:58:17;97482.56;;;22.15;32.48
48792;BME280;34587;48.816;9.420;2024-03-02T12:00:43;97468.56;;;24.10;30.86
48792;BME280;34587;48.816;9.420;2024-03-02T12:03:12;97472.84;;;23.25;31.64
48792;BME280;34587;48.816;9.420;2024-03-02T12:05:37;97462.00;;;23.67;30.77
48792;BME280;34587;48.816;9.420;2024-03-02T12:08:04;97453.63;;;23.62;31.52
48792;BME280;34587;48.816;9.420;2024-03-02T12:10:30;97459.47;;;20.81;36.44
48792;BME280;34587;48.816;9.420;2024-03-02T12:13:06;97453.25;;;21.88;34.50
48792;BME280;34587;48.816;9.420;2024-03-02T12:15:36;97447.72;;;21.91;34.14
48792;BME280;34587;48.816;9.420;2024-03-02T12:18:02;97453.25;;;21.46;35.50
48792;BME280;34587;48.816;9.420;2024-03-02T12:20:29;97431.69;;;23.23;33.75
48792;BME280;34587;48.816;9.420;2024-03-02T12:22:55;97447.56;;;20.32;36.40
48792;BME280;34587;48.816;9.420;2024-03-02T12:25:22;97448.88;;;20.37;38.48
48792;BME280;34587;48.816;9.420;2024-03-02T12:27:53;97438.97;;;19.85;38.86
48792;BME280;34587;48.816;9.420;2024-03-02T12:30:20;97446.97;;;19.37;39.10
48792;BME280;34587;48.816;9.420;2024-03-02T12:32:46;97436.59;;;18.63;41.93
48792;BME280;34587;48.816;9.420;2024-03-02T12:35:12;97449.47;;;17.28;43.74
48792;BME280;34587;48.816;9.420;2024-03-02T12:37:47;97441.63;;;16.88;46.25
48792;BME280;34587;48.816;9.420;2024-03-02T12:40:14;97437.06;;;16.36;47.70
48792;BME280;34587;48.816;9.420;2024-03-02T12:42:40;97428.44;;;16.48;49.29
48792;BME280;34587;48.816;9.420;2024-03-02T12:45:07;97424.00;;;16.36;48.34
48792;BME280;34587;48.816;9.420;2024-03-02T12:47:33;97423.03;;;16.51;48.35
48792;BME280;34587;48.816;9.420;2024-03-02T12:49:59;97419.75;;;16.89;46.10
48792;BME280;34587;48.816;9.420;2024-03-02T12:52:25;97412.78;;;17.02;46.81
48792;BME280;34587;48.816;9.420;2024-03-02T12:54:51;97414.72;;;17.51;45.30
48792;BME280;34587;48.816;9.420;2024-03-02T12:57:18;97409.00;;;17.06;44.52
48792;BME280;34587;48.816;9.420;2024-03-02T12:59:45;97413.44;;;17.18;45.07
48792;BME280;34587;48.816;9.420;2024-03-02T13:02:17;97417.31;;;16.86;44.35
48792;BME280;34587;48.816;9.420;2024-03-02T13:04:42;97408.22;;;17.31;44.71
48792;BME280;34587;48.816;9.420;2024-03-02T13:07:08;97411.91;;;16.89;44.55
48792;BME280;34587;48.816;9.420;2024-03-02T13:09:33;97409.19;;;16.63;45.52
48792;BME280;34587;48.816;9.420;2024-03-02T13:11:59;97406.44;;;16.92;44.97
48792;BME280;34587;48.816;9.420;2024-03-02T13:14:25;97401.94;;;16.54;44.66
48792;BME280;34587;48.816;9.420;2024-03-02T13:16:51;97396.16;;;16.49;43.33
48792;BME280;34587;48.816;9.420;2024-03-02T13:19:18;97406.34;;;16.66;43.93
48792;BME280;34587;48.816;9.420;2024-03-02T13:21:44;97394.09;;;16.54;44.36
48792;BME280;34587;48.816;9.420;2024-03-02T13:24:09;97396.63;;;16.83;43.79
48792;BME280;34587;48.816;9.420;2024-03-02T13:26:35;97386.03;;;16.57;42.81
48792;BME280;34587;48.816;9.420;2024-03-02T13:29:00;97393.94;;;16.97;42.99
48792;BME280;34587;48.816;9.420;2024-03-02T13:31:26;97383.59;;;17.08;42.25
48792;BME280;34587;48.816;9.420;2024-03-02T13:33:51;97380.47;;;17.29;42.65
48792;BME280;34587;48.816;9.420;2024-03-02T13:36:16;97378.16;;;17.37;41.55
48792;BME280;34587;48.816;9.420;2024-03-02T13:38:42;97378.25;;;17.23;40.58
48792;BME280;34587;48.816;9.420;2024-03-02T13:41:07;97376.53;;;16.96;40.92
48792;BME280;34587;48.816;9.420;2024-03-02T13:43:33;97382.75;;;17.08;40.41
48792;BME280;34587;48.816;9.420;2024-03-02T13:46:01;97382.97;;;16.78;40.64
48792;BME280;34587;48.816;9.420;2024-03-02T13:48:27;97376.06;;;17.16;40.12
48792;BME280;34587;48.816;9.420;2024-03-02T13:50:52;97376.78;;;17.18;39.49
48792;BME280;34587;48.816;9.420;2024-03-02T13:53:18;97374.06;;;17.20;39.52
48792;BME280;34587;48.816;9.420;2024-03-02T13:55:43;97370.84;;;16.77;39.10
48792;BME280;34587;48.816;9.420;2024-03-02T13:58:09;97372.34;;;17.06;39.34
48792;BME280;34587;48.816;9.420;2024-03-02T14:00:36;97366.94;;;17.09;39.20
48792;BME280;34587;48.816;9.420;2024-03-02T14:03:02;97363.38;;;17.10;38.67
48792;BME280;34587;48.816;9.420;2024-03-02T14:05:28;97369.88;;;17.17;37.89
48792;BME280;34587;48.816;9.420;2024-03-02T14:07:54;97369.81;;;16.92;37.79
48792;BME280;34587;48.816;9.420;2024-03-02T14:10:19;97363.19;;;17.13;38.12
48792;BME280;34587;48.816;9.420;2024-03-02T14:12:47;97361.28;;;17.15;37.43
48792;BME280;34587;48.816;9.420;2024-03-02T14:15:12;97360.59;;;16.86;38.00
48792;BME280;34587;48.816;9.420;2024-03-02T14:17:38;97356.06;;;17.03;37.59
48792;BME280;34587;48.816;9.420;2024-03-02T14:20:04;97354.75;;;16.83;37.06
48792;BME280;34587;48.816;9.420;2024-03-02T14:22:30;97355.59;;;16.96;37.52
48792;BME280;34587;48.816;9.420;2024-03-02T14:24:55;97353.50;;;16.88;37.52
48792;BME280;34587;48.816;9.420;2024-03-02T14:27:21;97354.56;;;16.59;37.23
48792;BME280;34587;48.816;9.420;2024-03-02T14:29:46;97351.69;;;16.49;37.91
48792;BME280;34587;48.816;9.420;2024-03-02T14:32:11;97350.81;;;16.36;37.97
48792;BME280;34587;48.816;9.420;2024-03-02T14:34:37;97346.66;;;16.46;38.07
48792;BME280;34587;48.816;9.420;2024-03-02T14:37:03;97344.78;;;16.48;38.54
48792;BME280;34587;48.816;9.420;2024-03-02T14:39:28;97348.50;;;16.31;38.69
48792;BME280;34587;48.816;9.420;2024-03-02T14:41:54;97345.91;;;16.17;38.47
48792;BME280;34587;48.816;9.420;2024-03-02T14:44:20;97336.47;;;16.14;38.97
48792;BME280;34587;48.816;9.420;2024-03-02T14:46:47;97342.81;;;16.25;40.62
48792;BME280;34587;48.816;9.420;2024-03-02T14:49:13;97338.56;;;16.09;41.44
48792;BME280;34587;48.816;9.420;2024-03-02T14:51:38;97336.88;;;16.08;44.34
48792;BME280;34587;48.816;9.420;2024-03-02T14:54:04;97334.50;;;15.91;45.65
48792;BME280;34587;48.816;9.420;2024-03-02T14:56:29;97337.50;;;15.71;46.05
48792;BME280;34587;48.816;9.420;2024-03-02T14:58:55;97336.88;;;15.67;46.17
48792;BME280;34587;48.816;9.420;2024-03-02T15:01:20;97328.16;;;15.81;46.14
48792;BME280;34587;48.816;9.420;2024-03-02T15:03:48;97326.28;;;15.54;43.20
48792;BME280;34587;48.816;9.420;2024-03-02T15:06:14;97319.19;;;15.56;42.55
48792;BME280;34587;48.816;9.420;2024-03-02T15:08:39;97326.28;;;15.54;43.18
48792;BME280;34587;48.816;9.420;2024-03-02T15:11:06;97324.16;;;15.47;43.72
48792;BME280;34587;48.816;9.420;2024-03-02T15:13:32;97321.06;;;15.26;45.68
48792;BME280;34587;48.816;9.420;2024-03-02T15:15:59;97311.56;;;15.25;48.16
48792;BME280;34587;48.816;9.420;2024-03-02T15:18:24;97310.25;;;15.32;48.95
48792;BME280;34587;48.816;9.420;2024-03-02T15:20:49;97308.59;;;15.31;51.03
48792;BME280;34587;48.816;9.420;2024-03-02T15:23:15;97304.75;;;15.22;54.35
48792;BME280;34587;48.816;9.420;2024-03-02T15:25:40;97302.97;;;15.08;57.87
48792;BME280;34587;48.816;9.420;2024-03-02T15:28:06;97305.03;;;15.03;59.12
48792;BME280;34587;48.816;9.420;2024-03-02T15:30:31;97297.53;;;14.83;56.68
48792;BME280;34587;48.816;9.420;2024-03-02T15:32:56;97299.59;;;14.78;54.64
48792;BME280;34587;48.816;9.420;2024-03-02T15:35:22;97292.28;;;14.69;55.30
48792;BME280;34587;48.816;9.420;2024-03-02T15:37:47;97292.44;;;14.51;53.06
48792;BME280;34587;48.816;9.420;2024-03-02T15:40:13;97298.31;;;14.39;55.54
48792;BME280;34587;48.816;9.420;2024-03-02T15:42:38;97293.06;;;14.25;56.65
48792;BME280;34587;48.816;9.420;2024-03-02T15:45:04;97295.25;;;14.17;53.85
48792;BME280;34587;48.816;9.420;2024-03-02T15:47:29;97292.25;;;14.08;54.27
48792;BME280;34587;48.816;9.420;2024-03-02T15:49:55;97303.91;;;14.01;54.54
48792;BME280;34587;48.816;9.420;2024-03-02T15:52:20;97297.38;;;13.94;57.56
48792;BME280;34587;48.816;9.420;2024-03-02T15:54:46;97306.78;;;13.81;60.65
48792;BME280;34587;48.816;9.420;2024-03-02T15:57:12;97302.16;;;13.70;62.17
48792;BME280;34587;48.816;9.420;2024-03-02T15:59:37;97305.75;;;13.68;63.13
48792;BME280;34587;48.816;9.420;2024-03-02T16:02:03;97307.13;;;13.59;65.25
48792;BME280;34587;48.816;9.420;2024-03-02T16:04:29;97311.66;;;13.55;66.76
48792;BME280;34587;48.816;9.420;2024-03-02T16:06:54;97314.00;;;13.44;68.54
48792;BME280;34587;48.816;9.420;2024-03-02T16:09:19;97303.41;;;13.47;68.65
48792;BME280;34587;48.816;9.420;2024-03-02T16:11:45;97300.88;;;13.30;70.81
48792;BME280;34587;48.816;9.420;2024-03-02T16:14:10;97308.44;;;13.34;71.02
48792;BME280;34587;48.816;9.420;2024-03-02T16:16:36;97312.50;;;13.23;72.74
48792;BME280;34587;48.816;9.420;2024-03-02T16:19:01;97304.31;;;13.13;74.44
48792;BME280;34587;48.816;9.420;2024-03-02T16:21:29;97308.34;;;13.19;72.56
48792;BME280;34587;48.816;9.420;2024-03-02T16:23:54;97299.19;;;13.11;74.17
48792;BME280;34587;48.816;9.420;2024-03-02T16:26:19;97302.25;;;13.02;76.19
48792;BME280;34587;48.816;9.420;2024-03-02T16:28:44;97300.88;;;12.95;78.45
48792;BME280;34587;48.816;9.420;2024-03-02T16:31:10;97296.16;;;12.86;80.53
48792;BME280;34587;48.816;9.420;2024-03-02T16:33:35;97297.31;;;12.80;82.16
48792;BME280;34587;48.816;9.420;2024-03-02T16:36:01;97291.72;;;12.71;84.09
48792;BME280;34587;48.816;9.420;2024-03-02T16:38:27;97284.13;;;12.68;85.53
48792;BME280;34587;48.816;9.420;2024-03-02T16:40:52;97293.06;;;12.62;87.03
48792;BME280;34587;48.816;9.420;2024-03-02T16:43:18;97296.88;;;12.55;89.50
48792;BME280;34587;48.816;9.420;2024-03-02T16:45:43;97299.84;;;12.47;91.60
48792;BME280;34587;48.816;9.420;2024-03-02T16:48:08;97296.63;;;12.42;92.86
48792;BME280;34587;48.816;9.420;2024-03-02T16:50:33;97298.78;;;12.34;94.73
48792;BME280;34587;48.816;9.420;2024-03-02T16:52:59;97303.19;;;12.32;96.22
48792;BME280;34587;48.816;9.420;2024-03-02T16:55:24;97308.31;;;12.33;97.04
48792;BME280;34587;48.816;9.420;2024-03-02T16:57:49;97303.50;;;12.26;97.55
48792;BME280;34587;48.816;9.420;2024-03-02T17:00:15;97295.16;;;12.19;98.67
48792;BME280;34587;48.816;9.420;2024-03-02T17:02:41;97298.75;;;12.17;99.83
48792;BME280;34587;48.816;9.420;2024-03-02T17:05:06;97300.38;;;12.19;100.00
48792;BME280;34587;48.816;9.420;2024-03-02T17:07:32;97292.53;;;12.02;100.00
48792;BME280;34587;48.816;9.420;2024-03-02T17:09:57;97301.38;;;11.98;100.00
48792;BME280;34587;48.816;9.420;2024-03-02T17:12:24;97307.56;;;11.95;100.00
48792;BME280;34587;48.816;9.420;2024-03-02T17:14:49;97304.81;;;11.61;100.00
48792;BME280;34587;48.816;9.420;2024-03-02T17:17:15;97313.44;;;11.42;100.00
48792;BME280;34587;48.816;9.420;2024-03-02T17:19:42;97316.59;;;11.10;100.00
48792;BME280;34587;48.816;9.420;2024-03-02T17:22:07;97312.41;;;11.26;100.00